createdAt,value
2023-09-23T00:02:34.539Z,14.43
2023-09-23T00:05:40.777Z,14.44
2023-09-23T00:11:50.634Z,14.40
2023-09-23T00:14:55.876Z,14.38
2023-09-23T00:17:59.306Z,14.31
2023-09-23T00:21:04.254Z,14.35
2023-09-23T00:24:09.826Z,14.29
2023-09-23T00:27:15.045Z,14.27
2023-09-23T00:30:19.257Z,14.33
2023-09-23T00:33:22.613Z,14.42
2023-09-23T00:36:26.661Z,14.47
2023-09-23T00:39:30.210Z,14.43
2023-09-23T00:42:34.881Z,14.54
2023-09-23T00:45:39.296Z,14.59
2023-09-23T00:48:45.218Z,14.64
2023-09-23T00:51:48.836Z,14.78
2023-09-23T00:54:52.636Z,14.65
2023-09-23T00:58:01.321Z,14.56
2023-09-23T01:01:04.974Z,14.63
2023-09-23T01:04:09.516Z,14.64
2023-09-23T01:07:13.159Z,14.59
2023-09-23T01:10:18.264Z,14.73
2023-09-23T01:13:25.387Z,14.82
2023-09-23T01:16:28.973Z,14.85
2023-09-23T01:19:32.317Z,14.86
2023-09-23T01:22:37.831Z,14.82
2023-09-23T01:25:44.517Z,14.75
2023-09-23T01:28:50.482Z,14.76
2023-09-23T01:32:08.592Z,14.78
2023-09-23T01:35:12.427Z,14.79
2023-09-23T01:38:17.867Z,14.69
2023-09-23T01:41:21.183Z,14.61
2023-09-23T01:44:24.546Z,14.60
2023-09-23T01:47:27.934Z,14.52
2023-09-23T01:50:31.557Z,14.46
2023-09-23T01:53:36.274Z,14.44
2023-09-23T01:56:39.760Z,14.57
2023-09-23T01:59:43.384Z,14.58
2023-09-23T02:02:46.939Z,14.65
2023-09-23T02:05:50.626Z,14.62
2023-09-23T02:08:55.984Z,14.77
2023-09-23T02:12:00.373Z,14.75
2023-09-23T02:15:03.777Z,14.73
2023-09-23T02:18:07.904Z,14.76
2023-09-23T02:21:11.286Z,14.75
2023-09-23T02:24:16.882Z,14.77
2023-09-23T02:27:22.642Z,14.85
2023-09-23T02:30:27.011Z,14.87
2023-09-23T02:33:31.365Z,15.04
2023-09-23T02:36:36.845Z,14.86
2023-09-23T02:39:43.109Z,14.84
2023-09-23T02:42:48.030Z,14.84
2023-09-23T02:45:51.809Z,14.80
2023-09-23T02:48:55.292Z,14.93
2023-09-23T02:52:00.062Z,14.85
2023-09-23T02:55:09.070Z,14.93
2023-09-23T02:58:14.401Z,14.83
2023-09-23T03:01:17.938Z,14.72
2023-09-23T03:04:24.964Z,14.64
2023-09-23T03:07:36.496Z,14.71
2023-09-23T03:10:45.990Z,14.79
2023-09-23T03:13:51.152Z,14.71
2023-09-23T03:16:55.772Z,15.00
2023-09-23T03:20:01.475Z,14.96
2023-09-23T03:23:10.911Z,15.00
2023-09-23T03:26:16.200Z,15.07
2023-09-23T03:29:20.478Z,15.27
2023-09-23T03:32:25.300Z,14.96
2023-09-23T03:35:31.738Z,15.00
2023-09-23T03:38:35.904Z,14.99
2023-09-23T03:41:40.810Z,14.81
2023-09-23T03:44:44.510Z,14.77
2023-09-23T03:47:48.512Z,14.69
2023-09-23T03:50:52.980Z,14.69
2023-09-23T03:53:57.305Z,14.58
2023-09-23T03:57:02.155Z,14.49
2023-09-23T04:00:12.058Z,14.61
2023-09-23T04:03:16.214Z,14.73
2023-09-23T04:06:19.925Z,14.85
2023-09-23T04:09:23.331Z,14.75
2023-09-23T04:12:28.078Z,14.74
2023-09-23T04:15:31.724Z,14.64
2023-09-23T04:18:34.987Z,14.89
2023-09-23T04:21:38.322Z,14.78
2023-09-23T04:24:41.559Z,14.71
2023-09-23T04:27:48.831Z,14.92
2023-09-23T04:30:55.074Z,14.76
2023-09-23T04:34:00.321Z,14.99
2023-09-23T04:37:05.468Z,14.71
2023-09-23T04:40:12.047Z,14.89
2023-09-23T04:43:17.674Z,14.94
2023-09-23T04:46:21.572Z,14.84
2023-09-23T04:49:25.028Z,14.80
2023-09-23T04:52:28.915Z,14.89
2023-09-23T04:55:33.710Z,14.84
2023-09-23T04:58:38.718Z,14.85
2023-09-23T05:01:42.079Z,15.06
2023-09-23T05:04:46.861Z,14.96
2023-09-23T05:07:50.311Z,14.95
2023-09-23T05:10:53.890Z,15.05
2023-09-23T05:13:58.686Z,15.19
2023-09-23T05:17:05.586Z,14.94
2023-09-23T05:20:14.591Z,15.14
2023-09-23T05:23:18.295Z,15.05
2023-09-23T05:26:22.593Z,15.09
2023-09-23T05:29:28.103Z,15.03
2023-09-23T05:32:31.743Z,14.92
2023-09-23T05:35:36.565Z,14.92
2023-09-23T05:38:39.902Z,14.96
2023-09-23T05:41:43.598Z,14.95
2023-09-23T05:44:49.056Z,14.83
2023-09-23T05:47:52.865Z,14.81
2023-09-23T05:51:05.392Z,14.88
2023-09-23T05:54:10.751Z,14.87
2023-09-23T05:57:14.133Z,14.93
2023-09-23T06:00:20.860Z,14.81
2023-09-23T06:03:24.808Z,14.97
2023-09-23T06:06:29.291Z,15.07
2023-09-23T06:09:32.962Z,14.73
2023-09-23T06:12:37.293Z,14.83
2023-09-23T06:15:42.098Z,14.97
2023-09-23T06:18:45.522Z,14.99
2023-09-23T06:21:49.855Z,15.01
2023-09-23T06:24:54.378Z,15.10
2023-09-23T06:27:57.749Z,15.15
2023-09-23T06:31:02.633Z,15.43
2023-09-23T06:34:07.442Z,15.25
2023-09-23T06:37:10.692Z,15.32
2023-09-23T06:40:14.053Z,15.46
2023-09-23T06:43:17.581Z,15.48
2023-09-23T06:46:22.647Z,15.44
2023-09-23T06:49:25.973Z,15.50
2023-09-23T06:52:29.274Z,15.51
2023-09-23T06:55:32.654Z,15.54
2023-09-23T06:58:35.961Z,15.58
2023-09-23T07:01:40.693Z,15.62
2023-09-23T07:04:43.958Z,15.61
2023-09-23T07:07:47.276Z,15.96
2023-09-23T07:10:51.288Z,15.83
2023-09-23T07:13:54.753Z,15.97
2023-09-23T07:17:00.099Z,16.12
2023-09-23T07:20:03.965Z,16.05
2023-09-23T07:23:07.535Z,15.91
2023-09-23T07:26:11.116Z,16.17
2023-09-23T07:29:14.477Z,16.28
2023-09-23T07:32:22.676Z,16.49
2023-09-23T07:35:25.991Z,16.02
2023-09-23T07:38:29.541Z,16.25
2023-09-23T07:41:33.025Z,16.04
2023-09-23T07:44:38.620Z,16.03
2023-09-23T07:47:43.354Z,15.95
2023-09-23T07:50:47.016Z,16.01
2023-09-23T07:53:53.206Z,16.30
2023-09-23T07:56:56.487Z,16.30
2023-09-23T08:00:00.177Z,16.28
2023-09-23T08:03:05.598Z,16.37
2023-09-23T08:06:09.384Z,16.60
2023-09-23T08:09:12.665Z,16.51
2023-09-23T08:12:16.013Z,16.35
2023-09-23T08:15:20.149Z,16.53
2023-09-23T08:18:24.944Z,16.60
2023-09-23T08:21:28.638Z,16.57
2023-09-23T08:24:31.889Z,16.45
2023-09-23T08:27:35.510Z,16.44
2023-09-23T08:30:39.694Z,16.24
2023-09-23T08:33:45.170Z,16.35
2023-09-23T08:36:48.898Z,16.73
2023-09-23T08:39:52.338Z,16.52
2023-09-23T08:42:59.444Z,16.55
2023-09-23T08:46:03.197Z,16.86
2023-09-23T08:49:10.747Z,16.91
2023-09-23T08:52:15.012Z,17.12
2023-09-23T08:55:19.860Z,17.43
2023-09-23T08:58:23.109Z,17.25
2023-09-23T09:01:28.494Z,17.33
2023-09-23T09:04:33.800Z,17.37
2023-09-23T09:07:38.405Z,17.24
2023-09-23T09:10:42.494Z,17.19
2023-09-23T09:13:46.159Z,17.14
2023-09-23T09:16:49.801Z,17.11
2023-09-23T09:19:55.100Z,17.46
2023-09-23T09:22:58.538Z,17.28
2023-09-23T09:26:02.016Z,17.24
2023-09-23T09:29:05.750Z,17.42
2023-09-23T09:32:11.273Z,17.62
2023-09-23T09:35:19.037Z,17.44
2023-09-23T09:38:27.107Z,17.28
2023-09-23T09:41:34.403Z,17.12
2023-09-23T09:44:39.453Z,16.95
2023-09-23T09:47:47.214Z,17.08
2023-09-23T09:50:55.268Z,17.17
2023-09-23T09:53:59.817Z,17.19
2023-09-23T09:57:03.799Z,17.22
2023-09-23T10:00:17.761Z,17.10
2023-09-23T10:03:29.547Z,17.40
2023-09-23T10:06:41.840Z,17.31
2023-09-23T10:09:54.912Z,17.46
2023-09-23T10:13:00.154Z,17.38
2023-09-23T10:16:06.745Z,17.38
2023-09-23T10:19:13.622Z,17.66
2023-09-23T10:22:20.889Z,17.35
2023-09-23T10:25:24.183Z,17.44
2023-09-23T10:28:30.019Z,17.39
2023-09-23T10:31:35.696Z,17.34
2023-09-23T10:34:48.206Z,17.38
2023-09-23T10:37:52.933Z,17.51
2023-09-23T10:40:57.911Z,17.69
2023-09-23T10:44:01.397Z,17.46
2023-09-23T10:47:06.284Z,17.19
2023-09-23T10:50:11.142Z,17.25
2023-09-23T10:53:17.356Z,17.35
2023-09-23T10:56:22.842Z,17.22
2023-09-23T10:59:26.401Z,17.29
2023-09-23T11:02:33.632Z,17.20
2023-09-23T11:05:38.553Z,17.28
2023-09-23T11:08:43.698Z,17.52
2023-09-23T11:11:47.827Z,17.55
2023-09-23T11:14:51.248Z,17.28
2023-09-23T11:17:56.616Z,17.32
2023-09-23T11:21:04.241Z,17.38
2023-09-23T11:24:09.759Z,17.31
2023-09-23T11:27:15.130Z,17.44
2023-09-23T11:30:18.458Z,17.38
2023-09-23T11:33:22.833Z,17.25
2023-09-23T11:36:27.097Z,17.23
2023-09-23T11:39:36.683Z,17.45
2023-09-23T11:42:40.064Z,17.38
2023-09-23T11:45:44.043Z,17.25
2023-09-23T11:48:49.616Z,17.13
2023-09-23T11:51:53.895Z,17.25
2023-09-23T11:54:58.590Z,17.37
2023-09-23T11:58:02.186Z,17.48
2023-09-23T12:01:06.415Z,17.33
2023-09-23T12:04:10.036Z,17.37
2023-09-23T12:07:13.669Z,17.32
2023-09-23T12:10:18.743Z,16.99
2023-09-23T12:13:25.920Z,17.09
2023-09-23T12:16:29.228Z,17.09
2023-09-23T12:19:32.621Z,17.00
2023-09-23T12:22:35.926Z,16.86
2023-09-23T12:25:40.684Z,16.86
2023-09-23T12:28:44.212Z,16.79
2023-09-23T12:31:47.749Z,16.87
2023-09-23T12:34:51.551Z,17.05
2023-09-23T12:37:55.560Z,17.12
2023-09-23T12:41:00.552Z,17.31
2023-09-23T12:44:06.240Z,17.14
2023-09-23T12:47:09.599Z,17.37
2023-09-23T12:50:13.739Z,17.37
2023-09-23T12:53:17.068Z,17.24
2023-09-23T12:56:23.105Z,17.59
2023-09-23T12:59:27.582Z,17.48
2023-09-23T13:02:31.181Z,17.63
2023-09-23T13:05:35.547Z,17.72
2023-09-23T13:08:39.517Z,17.52
2023-09-23T13:11:44.331Z,17.40
2023-09-23T13:14:48.079Z,17.36
2023-09-23T13:17:52.096Z,17.39
2023-09-23T13:20:55.500Z,17.48
2023-09-23T13:23:59.325Z,17.27
2023-09-23T13:27:04.716Z,17.20
2023-09-23T13:30:11.188Z,17.24
2023-09-23T13:33:15.222Z,17.11
2023-09-23T13:36:19.078Z,17.29
2023-09-23T13:39:22.695Z,17.25
2023-09-23T13:42:27.580Z,17.25
2023-09-23T13:45:31.006Z,17.24
2023-09-23T13:48:34.570Z,17.32
2023-09-23T13:51:38.024Z,17.25
2023-09-23T13:54:41.370Z,17.25
2023-09-23T13:57:46.410Z,17.39
2023-09-23T14:00:49.911Z,17.45
2023-09-23T14:03:53.424Z,17.32
2023-09-23T14:06:57.034Z,17.28
2023-09-23T14:10:10.288Z,17.29
2023-09-23T14:13:23.957Z,17.22
2023-09-23T14:16:27.477Z,17.22
2023-09-23T14:19:32.785Z,17.25
2023-09-23T14:22:36.004Z,17.13
2023-09-23T14:25:39.409Z,17.07
2023-09-23T14:28:46.711Z,17.09
2023-09-23T14:31:50.256Z,17.16
2023-09-23T14:34:54.317Z,17.21
2023-09-23T14:37:57.623Z,17.19
2023-09-23T14:41:01.200Z,17.09
2023-09-23T14:44:06.700Z,17.06
2023-09-23T14:47:10.029Z,17.02
2023-09-23T14:50:13.903Z,17.09
2023-09-23T14:53:17.390Z,17.12
2023-09-23T14:56:22.127Z,17.22
2023-09-23T14:59:29.375Z,17.20
2023-09-23T15:02:33.323Z,17.12
2023-09-23T15:05:37.440Z,17.25
2023-09-23T15:08:57.916Z,17.23
2023-09-23T15:12:04.139Z,17.30
2023-09-23T15:15:09.760Z,17.10
2023-09-23T15:18:13.416Z,17.00
2023-09-23T15:21:16.953Z,17.11
2023-09-23T15:24:20.297Z,17.04
2023-09-23T15:27:23.744Z,17.16
2023-09-23T15:30:28.878Z,17.16
2023-09-23T15:33:34.416Z,17.07
2023-09-23T15:36:37.908Z,16.92
2023-09-23T15:39:41.319Z,17.05
2023-09-23T15:42:47.395Z,17.06
2023-09-23T15:45:53.983Z,16.96
2023-09-23T15:48:57.444Z,16.96
2023-09-23T15:52:00.701Z,16.96
2023-09-23T15:55:04.131Z,17.03
2023-09-23T15:58:07.621Z,16.94
2023-09-23T16:01:12.821Z,16.93
2023-09-23T16:04:16.531Z,16.95
2023-09-23T16:07:20.168Z,16.89
2023-09-23T16:10:24.027Z,16.79
2023-09-23T16:13:27.755Z,16.85
2023-09-23T16:16:32.672Z,16.63
2023-09-23T16:19:37.737Z,16.68
2023-09-23T16:22:41.291Z,16.65
2023-09-23T16:25:46.536Z,16.54
2023-09-23T16:28:49.828Z,16.72
2023-09-23T16:31:54.744Z,16.81
2023-09-23T16:34:58.081Z,16.56
2023-09-23T16:38:02.545Z,16.70
2023-09-23T16:41:05.993Z,16.88
2023-09-23T16:44:10.040Z,16.73
2023-09-23T16:47:15.059Z,17.05
2023-09-23T16:50:18.552Z,16.77
2023-09-23T16:53:21.973Z,16.51
2023-09-23T16:56:25.995Z,16.35
2023-09-23T16:59:29.380Z,16.18
2023-09-23T17:02:34.339Z,16.41
2023-09-23T17:05:38.264Z,16.35
2023-09-23T17:08:42.616Z,16.58
2023-09-23T17:11:46.227Z,16.49
2023-09-23T17:14:49.454Z,16.65
2023-09-23T17:17:54.516Z,16.46
2023-09-23T17:20:57.976Z,16.27
2023-09-23T17:24:02.060Z,16.18
2023-09-23T17:27:06.269Z,16.26
2023-09-23T17:30:11.035Z,16.17
2023-09-23T17:33:15.916Z,16.17
2023-09-23T17:36:23.937Z,16.20
2023-09-23T17:39:28.085Z,15.98
2023-09-23T17:42:31.558Z,15.92
2023-09-23T17:45:37.961Z,15.73
2023-09-23T17:48:42.709Z,15.76
2023-09-23T17:51:46.624Z,15.75
2023-09-23T17:54:49.995Z,15.66
2023-09-23T17:57:53.289Z,15.67
2023-09-23T18:00:56.981Z,15.68
2023-09-23T18:04:01.804Z,15.66
2023-09-23T18:07:07.226Z,15.66
2023-09-23T18:10:11.533Z,15.64
2023-09-23T18:13:17.033Z,15.61
2023-09-23T18:16:20.513Z,15.65
2023-09-23T18:19:25.327Z,15.67
2023-09-23T18:22:29.522Z,15.68
2023-09-23T18:25:34.109Z,15.64
2023-09-23T18:28:38.202Z,15.70
2023-09-23T18:31:42.321Z,15.65
2023-09-23T18:34:47.534Z,15.67
2023-09-23T18:37:53.301Z,15.61
2023-09-23T18:40:56.990Z,15.60
2023-09-23T18:44:00.462Z,15.55
2023-09-23T18:47:04.284Z,15.62
2023-09-23T18:50:10.928Z,15.49
2023-09-23T18:53:14.329Z,15.46
2023-09-23T18:56:17.599Z,15.43
2023-09-23T18:59:21.000Z,15.35
2023-09-23T19:02:27.679Z,15.32
2023-09-23T19:05:32.539Z,15.33
2023-09-23T19:08:36.459Z,15.21
2023-09-23T19:11:40.332Z,15.18
2023-09-23T19:14:44.034Z,15.13
2023-09-23T19:17:49.276Z,15.18
2023-09-23T19:20:58.455Z,15.18
2023-09-23T19:24:02.001Z,15.25
2023-09-23T19:27:05.639Z,15.11
2023-09-23T19:30:12.306Z,15.09
2023-09-23T19:33:15.772Z,15.16
2023-09-23T19:36:20.542Z,15.06
2023-09-23T19:39:24.751Z,14.97
2023-09-23T19:42:28.168Z,14.83
2023-09-23T19:45:35.106Z,14.78
2023-09-23T19:48:38.774Z,14.70
2023-09-23T19:51:43.441Z,14.55
2023-09-23T19:54:47.580Z,14.51
2023-09-23T19:57:51.114Z,14.42
2023-09-23T20:00:54.782Z,14.31
2023-09-23T20:03:58.428Z,14.26
2023-09-23T20:07:03.346Z,14.16
2023-09-23T20:10:11.875Z,14.06
2023-09-23T20:13:15.165Z,14.12
2023-09-23T20:16:18.842Z,14.31
2023-09-23T20:19:22.231Z,14.14
2023-09-23T20:22:27.473Z,13.64
2023-09-23T20:25:30.906Z,13.87
2023-09-23T20:28:35.244Z,13.84
2023-09-23T20:31:39.002Z,13.74
2023-09-23T20:34:43.258Z,13.68
2023-09-23T20:37:48.626Z,13.65
2023-09-23T20:41:01.061Z,13.54
2023-09-23T20:44:04.890Z,13.36
2023-09-23T20:47:08.294Z,13.40
2023-09-23T20:50:13.239Z,13.29
2023-09-23T20:53:18.149Z,13.24
2023-09-23T20:56:21.684Z,13.28
2023-09-23T20:59:27.890Z,13.32
2023-09-23T21:02:31.546Z,13.37
2023-09-23T21:05:34.977Z,13.14
2023-09-23T21:08:40.062Z,13.35
2023-09-23T21:11:43.610Z,13.35
2023-09-23T21:14:47.042Z,13.32
2023-09-23T21:17:50.960Z,13.24
2023-09-23T21:20:54.308Z,13.19
2023-09-23T21:24:00.032Z,13.17
2023-09-23T21:27:04.013Z,12.68
2023-09-23T21:30:08.619Z,12.75
2023-09-23T21:33:12.097Z,12.62
2023-09-23T21:36:16.043Z,12.54
2023-09-23T21:39:21.081Z,12.59
2023-09-23T21:42:27.174Z,12.57
2023-09-23T21:45:31.129Z,12.40
2023-09-23T21:48:34.479Z,12.58
2023-09-23T21:51:38.074Z,12.77
2023-09-23T21:54:42.736Z,12.71
2023-09-23T21:57:48.992Z,12.77
2023-09-23T22:00:53.027Z,12.89
2023-09-23T22:03:56.622Z,12.88
2023-09-23T22:07:00.826Z,12.86
2023-09-23T22:10:09.874Z,12.74
2023-09-23T22:13:13.830Z,12.54
2023-09-23T22:16:17.340Z,12.36
2023-09-23T22:19:23.818Z,12.47
2023-09-23T22:22:33.208Z,12.22
2023-09-23T22:25:40.990Z,12.22
2023-09-23T22:28:45.073Z,12.22
2023-09-23T22:31:48.823Z,12.34
2023-09-23T22:34:52.333Z,12.15
2023-09-23T22:37:56.834Z,12.18
2023-09-23T22:41:02.316Z,12.39
2023-09-23T22:44:07.401Z,12.43
2023-09-23T22:47:11.142Z,12.36
2023-09-23T22:50:17.122Z,12.24
2023-09-23T22:53:22.041Z,12.10
2023-09-23T22:56:27.410Z,11.93
2023-09-23T22:59:31.192Z,11.92
2023-09-23T23:02:35.111Z,11.78
2023-09-23T23:05:39.140Z,11.89
2023-09-23T23:08:43.751Z,11.85
2023-09-23T23:11:49.201Z,11.86
2023-09-23T23:14:53.091Z,11.71
2023-09-23T23:17:57.010Z,11.76
2023-09-23T23:21:00.491Z,11.88
2023-09-23T23:24:05.049Z,11.56
2023-09-23T23:27:11.363Z,11.83
2023-09-23T23:30:15.880Z,11.70
2023-09-23T23:33:19.669Z,11.59
2023-09-23T23:36:22.949Z,11.75
2023-09-23T23:39:27.364Z,11.59
2023-09-23T23:42:33.741Z,11.69
2023-09-23T23:45:37.182Z,11.68
2023-09-23T23:48:41.752Z,11.73
2023-09-23T23:51:46.450Z,11.66
